createdAt,value
2023-02-06T00:01:41.071Z,63.08
2023-02-06T00:04:09.145Z,63.67
2023-02-06T00:06:36.840Z,62.77
2023-02-06T00:09:05.876Z,63.76
2023-02-06T00:11:34.165Z,63.45
2023-02-06T00:14:01.693Z,62.85
2023-02-06T00:16:33.538Z,62.97
2023-02-06T00:19:02.035Z,62.79
2023-02-06T00:21:30.381Z,63.03
2023-02-06T00:23:59.839Z,62.50
2023-02-06T00:26:28.011Z,63.61
2023-02-06T00:28:55.664Z,63.06
2023-02-06T00:31:24.967Z,63.49
2023-02-06T00:33:53.010Z,62.74
2023-02-06T00:36:20.891Z,62.88
2023-02-06T00:38:48.480Z,63.41
2023-02-06T00:41:16.534Z,63.66
2023-02-06T00:43:44.510Z,63.76
2023-02-06T00:46:12.264Z,63.27
2023-02-06T00:48:40.327Z,62.71
2023-02-06T00:51:07.999Z,64.36
2023-02-06T00:53:38.086Z,63.80
2023-02-06T00:56:06.289Z,64.22
2023-02-06T00:58:34.542Z,63.99
2023-02-06T01:01:02.260Z,64.03
2023-02-06T01:03:30.363Z,64.12
2023-02-06T01:05:58.059Z,64.46
2023-02-06T01:08:25.925Z,64.47
2023-02-06T01:10:54.074Z,63.30
2023-02-06T01:13:22.004Z,63.37
2023-02-06T01:15:51.213Z,62.79
2023-02-06T01:18:19.326Z,62.96
2023-02-06T01:20:46.914Z,63.56
2023-02-06T01:23:14.559Z,63.38
2023-02-06T01:25:42.565Z,63.03
2023-02-06T01:28:10.194Z,61.66
2023-02-06T01:30:39.151Z,62.73
2023-02-06T01:33:07.108Z,62.64
2023-02-06T01:35:35.386Z,64.31
2023-02-06T01:38:03.074Z,64.68
2023-02-06T01:40:31.093Z,65.07
2023-02-06T01:42:58.674Z,62.83
2023-02-06T01:45:26.181Z,63.28
2023-02-06T01:48:00.898Z,63.96
2023-02-06T01:50:31.107Z,63.50
2023-02-06T01:52:59.498Z,62.76
2023-02-06T01:55:27.236Z,63.10
2023-02-06T01:57:54.972Z,63.11
2023-02-06T02:00:23.258Z,63.13
2023-02-06T02:02:51.251Z,64.64
2023-02-06T02:05:19.747Z,63.27
2023-02-06T02:07:55.010Z,63.03
2023-02-06T02:10:22.987Z,62.79
2023-02-06T02:12:50.633Z,63.00
2023-02-06T02:15:18.363Z,63.09
2023-02-06T02:18:26.464Z,63.27
2023-02-06T02:21:28.414Z,63.22
2023-02-06T02:24:10.260Z,63.30
2023-02-06T02:27:15.259Z,62.81
2023-02-06T02:30:18.895Z,63.35
2023-02-06T02:32:52.959Z,62.68
2023-02-06T02:36:11.301Z,63.74
2023-02-06T02:39:20.056Z,62.56
2023-02-06T02:42:04.187Z,63.48
2023-02-06T02:44:46.950Z,62.20
2023-02-06T02:47:18.145Z,61.71
2023-02-06T02:49:48.608Z,61.30
2023-02-06T02:52:16.531Z,61.00
2023-02-06T02:54:44.219Z,62.19
2023-02-06T02:57:22.759Z,62.21
2023-02-06T02:59:51.985Z,61.21
2023-02-06T03:02:25.623Z,61.23
2023-02-06T03:04:58.617Z,61.28
2023-02-06T03:07:45.222Z,60.44
2023-02-06T03:10:22.063Z,61.52
2023-02-06T03:13:03.584Z,61.58
2023-02-06T03:15:41.718Z,61.28
2023-02-06T03:18:21.409Z,63.14
2023-02-06T03:20:50.871Z,62.06
2023-02-06T03:23:24.429Z,62.47
2023-02-06T03:25:55.985Z,62.58
2023-02-06T03:28:28.029Z,63.11
2023-02-06T03:31:00.252Z,62.96
2023-02-06T03:33:34.258Z,62.35
2023-02-06T03:36:05.450Z,62.56
2023-02-06T03:38:33.332Z,62.37
2023-02-06T03:41:02.120Z,63.37
2023-02-06T03:43:30.742Z,62.82
2023-02-06T03:46:03.213Z,62.21
2023-02-06T03:48:39.753Z,62.45
2023-02-06T03:51:40.849Z,62.92
2023-02-06T03:54:11.760Z,61.55
2023-02-06T03:57:02.247Z,60.98
2023-02-06T03:59:31.271Z,61.53
2023-02-06T04:02:02.841Z,62.33
2023-02-06T04:04:41.999Z,62.17
2023-02-06T04:07:30.992Z,61.77
2023-02-06T04:09:59.078Z,61.67
2023-02-06T04:12:27.656Z,61.28
2023-02-06T04:14:55.776Z,63.09
2023-02-06T04:17:40.690Z,61.84
2023-02-06T04:20:11.597Z,61.95
2023-02-06T04:22:41.337Z,62.30
2023-02-06T04:25:08.935Z,62.53
2023-02-06T04:27:37.317Z,61.05
2023-02-06T04:30:06.388Z,60.51
2023-02-06T04:32:34.330Z,60.43
2023-02-06T04:35:02.096Z,61.24
2023-02-06T04:37:30.905Z,61.39
2023-02-06T04:39:59.568Z,61.46
2023-02-06T04:42:27.502Z,62.29
2023-02-06T04:44:55.460Z,62.53
2023-02-06T04:47:23.004Z,62.02
2023-02-06T04:49:50.715Z,61.35
2023-02-06T04:52:18.623Z,61.36
2023-02-06T04:54:46.221Z,61.93
2023-02-06T04:57:13.805Z,61.89
2023-02-06T04:59:41.803Z,62.46
2023-02-06T05:02:09.419Z,61.72
2023-02-06T05:04:38.995Z,62.11
2023-02-06T05:07:06.983Z,62.00
2023-02-06T05:09:34.686Z,62.28
2023-02-06T05:12:03.141Z,61.92
2023-02-06T05:14:31.350Z,60.62
2023-02-06T05:16:58.956Z,60.54
2023-02-06T05:19:26.588Z,59.55
2023-02-06T05:21:54.858Z,59.39
2023-02-06T05:24:22.518Z,59.46
2023-02-06T05:26:50.196Z,58.47
2023-02-06T05:29:18.053Z,59.04
2023-02-06T05:31:45.988Z,58.94
2023-02-06T05:34:13.635Z,58.60
2023-02-06T05:36:41.570Z,57.92
2023-02-06T05:39:09.359Z,58.12
2023-02-06T05:41:36.989Z,58.75
2023-02-06T05:44:05.101Z,58.30
2023-02-06T05:46:33.055Z,58.10
2023-02-06T05:49:01.168Z,57.98
2023-02-06T05:51:29.003Z,58.34
2023-02-06T05:53:56.629Z,58.58
2023-02-06T05:56:24.196Z,60.05
2023-02-06T05:58:52.150Z,60.29
2023-02-06T06:01:20.290Z,60.22
2023-02-06T06:03:48.253Z,59.17
2023-02-06T06:06:16.068Z,58.90
2023-02-06T06:08:43.636Z,58.40
2023-02-06T06:11:11.675Z,58.09
2023-02-06T06:13:39.283Z,57.45
2023-02-06T06:16:07.079Z,57.96
2023-02-06T06:18:35.177Z,58.28
2023-02-06T06:21:02.753Z,57.34
2023-02-06T06:23:30.568Z,55.94
2023-02-06T06:25:58.487Z,55.00
2023-02-06T06:28:26.083Z,54.53
2023-02-06T06:31:04.307Z,53.87
2023-02-06T06:33:32.763Z,53.62
2023-02-06T06:36:00.665Z,54.46
2023-02-06T06:38:28.524Z,54.33
2023-02-06T06:40:56.410Z,55.22
2023-02-06T06:43:24.130Z,55.44
2023-02-06T06:45:51.900Z,54.76
2023-02-06T06:48:19.937Z,56.11
2023-02-06T06:50:50.376Z,57.69
2023-02-06T06:53:18.522Z,55.94
2023-02-06T06:55:46.455Z,55.12
2023-02-06T06:58:14.642Z,56.64
2023-02-06T07:00:42.260Z,55.76
2023-02-06T07:03:11.803Z,55.05
2023-02-06T07:05:39.833Z,56.61
2023-02-06T07:08:07.580Z,56.40
2023-02-06T07:10:36.053Z,56.88
2023-02-06T07:13:03.808Z,56.22
2023-02-06T07:15:31.679Z,56.15
2023-02-06T07:17:59.782Z,57.06
2023-02-06T07:20:27.799Z,56.45
2023-02-06T07:22:55.390Z,55.28
2023-02-06T07:25:23.420Z,53.56
2023-02-06T07:27:51.061Z,53.28
2023-02-06T07:30:18.978Z,53.82
2023-02-06T07:32:47.454Z,53.30
2023-02-06T07:35:15.372Z,52.42
2023-02-06T07:37:43.036Z,53.82
2023-02-06T07:40:11.704Z,52.29
2023-02-06T07:42:40.294Z,53.09
2023-02-06T07:45:08.987Z,53.19
2023-02-06T07:47:36.942Z,55.21
2023-02-06T07:50:06.928Z,54.38
2023-02-06T07:52:34.931Z,54.25
2023-02-06T07:55:03.064Z,54.00
2023-02-06T07:57:30.760Z,55.26
2023-02-06T07:59:58.438Z,54.30
2023-02-06T08:02:26.377Z,54.50
2023-02-06T08:04:54.267Z,54.69
2023-02-06T08:07:21.901Z,54.12
2023-02-06T08:09:49.501Z,54.89
2023-02-06T08:12:17.426Z,53.68
2023-02-06T08:14:45.891Z,53.95
2023-02-06T08:17:13.765Z,54.72
2023-02-06T08:19:42.138Z,53.48
2023-02-06T08:22:09.670Z,52.68
2023-02-06T08:24:37.235Z,52.62
2023-02-06T08:27:07.140Z,52.47
2023-02-06T08:29:42.640Z,53.87
2023-02-06T08:32:11.365Z,53.11
2023-02-06T08:34:40.468Z,51.26
2023-02-06T08:37:08.293Z,52.54
2023-02-06T08:39:36.384Z,53.07
2023-02-06T08:42:04.134Z,52.18
2023-02-06T08:44:32.208Z,51.68
2023-02-06T08:47:09.728Z,51.65
2023-02-06T08:49:38.476Z,51.36
2023-02-06T08:52:06.355Z,50.87
2023-02-06T08:54:36.341Z,51.09
2023-02-06T08:57:06.705Z,50.77
2023-02-06T08:59:35.705Z,49.49
2023-02-06T09:02:03.388Z,51.94
2023-02-06T09:04:31.928Z,52.13
2023-02-06T09:06:59.810Z,51.56
2023-02-06T09:09:27.539Z,52.25
2023-02-06T09:11:56.298Z,51.00
2023-02-06T09:14:24.196Z,50.08
2023-02-06T09:16:51.959Z,49.97
2023-02-06T09:19:19.552Z,49.00
2023-02-06T09:21:47.510Z,49.09
2023-02-06T09:24:15.104Z,48.32
2023-02-06T09:26:58.591Z,48.13
2023-02-06T09:29:32.068Z,48.84
2023-02-06T09:32:00.745Z,49.10
2023-02-06T09:34:28.916Z,48.83
2023-02-06T09:36:57.885Z,48.13
2023-02-06T09:39:25.935Z,49.22
2023-02-06T09:42:05.515Z,49.34
2023-02-06T09:44:38.968Z,50.70
2023-02-06T09:47:32.215Z,50.11
2023-02-06T09:50:05.569Z,49.88
2023-02-06T09:52:59.876Z,49.17
2023-02-06T09:55:36.599Z,49.33
2023-02-06T09:58:23.306Z,50.39
2023-02-06T10:01:00.500Z,51.58
2023-02-06T10:03:40.324Z,50.52
2023-02-06T10:06:19.797Z,49.28
2023-02-06T10:08:58.137Z,49.07
2023-02-06T10:11:40.581Z,48.92
2023-02-06T10:14:31.918Z,48.17
2023-02-06T10:17:12.171Z,48.62
2023-02-06T10:19:50.970Z,49.28
2023-02-06T10:22:26.977Z,49.42
2023-02-06T10:25:13.543Z,48.25
2023-02-06T10:27:44.592Z,47.91
2023-02-06T10:30:47.147Z,48.12
2023-02-06T10:33:27.991Z,48.79
2023-02-06T10:36:07.700Z,49.78
2023-02-06T10:39:10.283Z,47.94
2023-02-06T10:41:55.146Z,47.84
2023-02-06T10:44:48.486Z,46.57
2023-02-06T10:47:39.306Z,46.35
2023-02-06T10:50:39.489Z,46.67
2023-02-06T10:53:26.562Z,47.08
2023-02-06T10:56:00.848Z,47.52
2023-02-06T10:58:39.942Z,47.08
2023-02-06T11:01:24.657Z,47.33
2023-02-06T11:04:05.526Z,47.48
2023-02-06T11:06:33.495Z,47.03
2023-02-06T11:09:01.691Z,45.56
2023-02-06T11:11:32.213Z,47.70
2023-02-06T11:14:25.303Z,47.26
2023-02-06T11:16:53.665Z,46.57
2023-02-06T11:19:27.342Z,45.79
2023-02-06T11:22:07.406Z,46.57
2023-02-06T11:24:36.425Z,47.52
2023-02-06T11:27:14.832Z,48.30
2023-02-06T11:29:51.647Z,46.52
2023-02-06T11:32:41.473Z,47.41
2023-02-06T11:35:33.429Z,46.55
2023-02-06T11:38:29.548Z,47.67
2023-02-06T11:41:18.849Z,48.54
2023-02-06T11:43:51.772Z,47.85
2023-02-06T11:46:26.898Z,47.03
2023-02-06T11:48:54.740Z,48.08
2023-02-06T11:51:44.247Z,48.78
2023-02-06T11:54:29.812Z,48.75
2023-02-06T11:57:03.168Z,48.95
2023-02-06T11:59:34.647Z,48.90
2023-02-06T12:02:06.123Z,46.38
2023-02-06T12:04:38.239Z,48.12
2023-02-06T12:07:08.808Z,48.58
2023-02-06T12:09:36.961Z,49.16
2023-02-06T12:12:22.874Z,49.55
2023-02-06T12:15:55.441Z,50.05
2023-02-06T12:18:27.206Z,48.85
2023-02-06T12:20:59.445Z,48.09
2023-02-06T12:23:44.853Z,49.24
2023-02-06T12:26:20.933Z,49.44
2023-02-06T12:29:03.177Z,49.23
2023-02-06T12:31:32.145Z,49.57
2023-02-06T12:34:19.830Z,48.45
2023-02-06T12:36:58.843Z,48.86
2023-02-06T12:39:33.073Z,48.79
2023-02-06T12:42:18.560Z,48.92
2023-02-06T12:44:46.040Z,50.14
2023-02-06T12:47:24.766Z,50.42
2023-02-06T12:50:00.288Z,49.64
2023-02-06T12:52:59.334Z,50.59
2023-02-06T12:55:35.741Z,50.06
2023-02-06T12:58:05.225Z,50.85
2023-02-06T13:00:49.609Z,50.26
2023-02-06T13:03:31.138Z,49.95
2023-02-06T13:06:02.561Z,50.42
2023-02-06T13:08:36.482Z,50.60
2023-02-06T13:11:08.157Z,50.42
2023-02-06T13:13:38.902Z,51.69
2023-02-06T13:16:07.949Z,50.71
2023-02-06T13:18:42.031Z,50.38
2023-02-06T13:21:28.742Z,50.72
2023-02-06T13:24:02.714Z,50.51
2023-02-06T13:26:56.544Z,51.63
2023-02-06T13:29:26.403Z,51.91
2023-02-06T13:32:12.507Z,51.37
2023-02-06T13:34:43.381Z,50.51
2023-02-06T13:37:25.956Z,50.22
2023-02-06T13:40:21.031Z,50.67
2023-02-06T13:43:03.560Z,50.76
2023-02-06T13:45:31.421Z,50.93
2023-02-06T13:48:17.679Z,51.10
2023-02-06T13:51:05.225Z,51.06
2023-02-06T13:53:43.749Z,51.47
2023-02-06T13:56:31.864Z,51.07
2023-02-06T13:59:06.452Z,51.70
2023-02-06T14:01:34.635Z,52.06
2023-02-06T14:04:09.125Z,51.78
2023-02-06T14:07:13.422Z,51.76
2023-02-06T14:09:56.498Z,50.74
2023-02-06T14:12:38.870Z,51.11
2023-02-06T14:15:28.726Z,52.15
2023-02-06T14:18:35.120Z,52.30
2023-02-06T14:21:12.188Z,52.72
2023-02-06T14:24:17.983Z,52.61
2023-02-06T14:26:53.122Z,53.09
2023-02-06T14:29:49.462Z,53.40
2023-02-06T14:32:26.185Z,53.49
2023-02-06T14:34:56.501Z,53.49
2023-02-06T14:37:57.193Z,53.23
2023-02-06T14:40:28.450Z,53.52
2023-02-06T14:43:04.336Z,53.05
2023-02-06T14:45:41.650Z,53.91
2023-02-06T14:48:49.582Z,53.25
2023-02-06T14:51:42.560Z,53.13
2023-02-06T14:54:32.793Z,53.00
2023-02-06T14:57:05.775Z,53.14
2023-02-06T14:59:34.764Z,54.67
2023-02-06T15:02:13.775Z,55.27
2023-02-06T15:04:47.315Z,55.39
2023-02-06T15:07:43.963Z,55.29
2023-02-06T15:10:15.396Z,56.58
2023-02-06T15:12:51.470Z,57.13
2023-02-06T15:15:31.761Z,56.98
2023-02-06T15:17:59.308Z,59.07
2023-02-06T15:20:35.413Z,57.96
2023-02-06T15:23:27.803Z,58.24
2023-02-06T15:26:29.746Z,57.39
2023-02-06T15:28:59.700Z,58.13
2023-02-06T15:31:29.280Z,57.60
2023-02-06T15:33:59.338Z,58.14
2023-02-06T15:36:38.751Z,57.50
2023-02-06T15:39:08.060Z,57.67
2023-02-06T15:41:37.201Z,58.35
2023-02-06T15:44:12.374Z,59.59
2023-02-06T15:46:41.037Z,58.87
2023-02-06T15:49:33.057Z,58.88
2023-02-06T15:52:02.028Z,59.03
2023-02-06T15:54:30.030Z,58.49
2023-02-06T15:57:22.341Z,58.64
2023-02-06T15:59:54.481Z,59.96
2023-02-06T16:02:34.956Z,58.92
2023-02-06T16:05:04.598Z,58.84
2023-02-06T16:07:36.002Z,58.97
2023-02-06T16:10:28.742Z,58.81
2023-02-06T16:13:00.145Z,58.31
2023-02-06T16:15:30.280Z,59.08
2023-02-06T16:18:00.080Z,59.95
2023-02-06T16:20:42.246Z,59.89
2023-02-06T16:23:24.079Z,61.37
2023-02-06T16:26:04.327Z,60.23
2023-02-06T16:28:32.039Z,59.33
2023-02-06T16:31:04.526Z,59.28
2023-02-06T16:33:39.959Z,59.24
2023-02-06T16:36:11.798Z,59.55
2023-02-06T16:38:39.540Z,59.34
2023-02-06T16:41:25.216Z,59.35
2023-02-06T16:43:54.470Z,59.53
2023-02-06T16:46:22.306Z,59.77
2023-02-06T16:48:50.158Z,60.30
2023-02-06T16:51:24.157Z,59.83
2023-02-06T16:53:52.831Z,59.33
2023-02-06T16:56:21.950Z,58.81
2023-02-06T16:58:50.060Z,58.81
2023-02-06T17:01:25.244Z,60.74
2023-02-06T17:03:54.193Z,60.22
2023-02-06T17:06:24.894Z,59.32
2023-02-06T17:08:57.189Z,58.37
2023-02-06T17:11:25.124Z,60.36
2023-02-06T17:13:53.085Z,60.73
2023-02-06T17:16:22.861Z,60.98
2023-02-06T17:18:51.998Z,60.40
2023-02-06T17:21:23.599Z,59.83
2023-02-06T17:23:51.680Z,59.13
2023-02-06T17:26:22.201Z,59.09
2023-02-06T17:28:52.512Z,58.45
2023-02-06T17:31:20.419Z,59.05
2023-02-06T17:33:48.194Z,58.01
2023-02-06T17:36:29.258Z,60.93
2023-02-06T17:38:59.006Z,60.32
2023-02-06T17:41:27.726Z,60.38
2023-02-06T17:43:55.497Z,59.89
2023-02-06T17:46:23.655Z,60.70
2023-02-06T17:48:51.603Z,59.95
2023-02-06T17:51:19.281Z,59.04
2023-02-06T17:53:47.375Z,59.53
2023-02-06T17:56:15.315Z,59.21
2023-02-06T17:58:43.466Z,60.36
2023-02-06T18:01:16.992Z,58.83
2023-02-06T18:03:47.869Z,59.10
2023-02-06T18:06:16.839Z,57.81
2023-02-06T18:08:45.254Z,59.40
2023-02-06T18:11:21.560Z,58.45
2023-02-06T18:13:50.215Z,60.06
2023-02-06T18:16:22.281Z,59.55
2023-02-06T18:18:50.571Z,60.56
2023-02-06T18:21:20.266Z,59.16
2023-02-06T18:23:48.945Z,59.70
2023-02-06T18:26:17.751Z,59.42
2023-02-06T18:28:46.057Z,58.93
2023-02-06T18:31:29.321Z,58.63
2023-02-06T18:33:57.811Z,58.96
2023-02-06T18:36:26.524Z,59.12
2023-02-06T18:38:54.536Z,60.01
2023-02-06T18:41:41.581Z,61.59
2023-02-06T18:44:10.730Z,61.03
2023-02-06T18:46:39.511Z,59.87
2023-02-06T18:49:08.984Z,59.90
2023-02-06T18:51:37.046Z,60.48
2023-02-06T18:54:07.755Z,60.88
2023-02-06T18:56:38.974Z,59.79
2023-02-06T18:59:07.264Z,59.78
2023-02-06T19:01:35.658Z,59.53
2023-02-06T19:04:04.069Z,61.53
2023-02-06T19:06:35.567Z,61.26
2023-02-06T19:09:07.156Z,60.67
2023-02-06T19:11:36.643Z,60.39
2023-02-06T19:14:07.216Z,60.22
2023-02-06T19:16:38.491Z,59.95
2023-02-06T19:19:07.756Z,60.20
2023-02-06T19:21:35.734Z,59.91
2023-02-06T19:24:05.821Z,59.85
2023-02-06T19:26:34.127Z,61.72
2023-02-06T19:29:02.333Z,61.63
2023-02-06T19:31:31.991Z,62.52
2023-02-06T19:34:01.828Z,61.56
2023-02-06T19:36:31.499Z,61.45
2023-02-06T19:39:01.262Z,62.75
2023-02-06T19:41:31.625Z,62.37
2023-02-06T19:44:04.527Z,62.33
2023-02-06T19:46:33.663Z,62.87
2023-02-06T19:49:01.597Z,63.14
2023-02-06T19:51:33.016Z,62.65
2023-02-06T19:54:01.521Z,61.88
2023-02-06T19:56:34.666Z,62.61
2023-02-06T19:59:06.428Z,63.81
2023-02-06T20:01:35.885Z,63.13
2023-02-06T20:04:04.252Z,62.66
2023-02-06T20:06:35.073Z,61.79
2023-02-06T20:09:04.309Z,61.86
2023-02-06T20:11:33.706Z,62.01
2023-02-06T20:14:01.795Z,62.51
2023-02-06T20:16:32.367Z,62.87
2023-02-06T20:19:13.252Z,63.13
2023-02-06T20:21:44.269Z,63.64
2023-02-06T20:24:18.652Z,64.76
2023-02-06T20:26:47.162Z,64.53
2023-02-06T20:29:23.269Z,64.53
2023-02-06T20:31:52.098Z,63.47
2023-02-06T20:34:21.811Z,63.58
2023-02-06T20:36:50.844Z,62.64
2023-02-06T20:39:19.117Z,61.70
2023-02-06T20:41:49.597Z,63.37
2023-02-06T20:44:19.354Z,63.60
2023-02-06T20:46:48.221Z,63.34
2023-02-06T20:49:22.878Z,63.18
2023-02-06T20:51:51.778Z,62.58
2023-02-06T20:54:20.794Z,61.77
2023-02-06T20:56:48.986Z,64.58
2023-02-06T20:59:19.863Z,63.69
2023-02-06T21:01:48.228Z,63.82
2023-02-06T21:04:16.952Z,64.87
2023-02-06T21:06:47.965Z,64.41
2023-02-06T21:09:17.053Z,63.98
2023-02-06T21:11:47.699Z,64.74
2023-02-06T21:14:16.909Z,63.64
2023-02-06T21:16:45.082Z,63.32
2023-02-06T21:19:14.982Z,62.41
2023-02-06T21:21:45.880Z,62.22
2023-02-06T21:24:15.892Z,62.88
2023-02-06T21:26:44.013Z,63.35
2023-02-06T21:29:13.892Z,62.86
2023-02-06T21:31:42.475Z,63.42
2023-02-06T21:34:13.622Z,63.54
2023-02-06T21:36:41.841Z,63.72
2023-02-06T21:39:11.405Z,63.03
2023-02-06T21:41:39.053Z,63.43
2023-02-06T21:44:06.632Z,63.78
2023-02-06T21:46:34.797Z,63.72
2023-02-06T21:49:02.551Z,64.74
2023-02-06T21:51:31.496Z,65.89
2023-02-06T21:53:59.540Z,64.27
2023-02-06T21:56:28.613Z,62.76
2023-02-06T21:58:56.563Z,63.64
2023-02-06T22:01:30.216Z,63.61
2023-02-06T22:03:58.298Z,63.33
2023-02-06T22:06:26.987Z,62.64
2023-02-06T22:08:56.982Z,62.02
2023-02-06T22:11:27.616Z,62.67
2023-02-06T22:14:06.771Z,63.88
2023-02-06T22:16:35.199Z,63.68
2023-02-06T22:19:04.266Z,64.09
2023-02-06T22:21:32.978Z,63.93
2023-02-06T22:24:06.127Z,64.33
2023-02-06T22:26:38.578Z,64.65
2023-02-06T22:29:08.474Z,64.82
2023-02-06T22:31:36.975Z,63.77
2023-02-06T22:34:04.619Z,64.83
2023-02-06T22:36:33.502Z,64.19
2023-02-06T22:39:06.479Z,65.38
2023-02-06T22:41:37.887Z,64.09
2023-02-06T22:44:05.678Z,63.41
2023-02-06T22:46:38.650Z,62.42
2023-02-06T22:49:08.799Z,63.41
2023-02-06T22:51:38.220Z,63.83
2023-02-06T22:54:09.435Z,63.36
2023-02-06T22:56:39.057Z,62.88
2023-02-06T22:59:17.356Z,64.13
2023-02-06T23:01:54.176Z,63.06
2023-02-06T23:04:30.953Z,62.20
2023-02-06T23:06:58.543Z,63.95
2023-02-06T23:09:29.961Z,61.92
2023-02-06T23:11:58.496Z,61.37
2023-02-06T23:14:28.900Z,61.33
2023-02-06T23:16:57.001Z,60.48
2023-02-06T23:19:24.884Z,60.83
2023-02-06T23:21:53.638Z,60.94
2023-02-06T23:24:21.576Z,62.05
2023-02-06T23:26:50.966Z,61.02
2023-02-06T23:29:20.894Z,59.93
2023-02-06T23:31:49.127Z,61.60
2023-02-06T23:34:18.883Z,61.62
2023-02-06T23:36:47.432Z,60.99
2023-02-06T23:39:15.851Z,61.57
2023-02-06T23:41:43.508Z,61.35
2023-02-06T23:44:11.930Z,60.56
2023-02-06T23:46:40.502Z,60.49
2023-02-06T23:49:08.783Z,59.63
2023-02-06T23:51:38.137Z,60.20
2023-02-06T23:54:07.663Z,60.33
2023-02-06T23:56:36.034Z,60.29
2023-02-06T23:59:05.430Z,61.21
